Time;durP1;ratioP1;P1;durP2;ratioP2;P2;SDS_P1;SDS_P2;PMS_P1;PMS_P2;Temp;Humidity;BMP_temperature;BMP_pressure;BME280_temperature;BME280_humidity;BME280_pressure;Samples;Min_cycle;Max_cycle;Signal;HPM_P1;HPM_P2
2021/08/28 00:01:00;;;;;;;1999.90;999.90;;;;;;;16.81;78.21;100984.34;15807530;28;20039;-61
2021/08/28 00:08:34;;;;;;;1999.90;999.90;;;;;;;16.80;78.30;100987.53;15765295;28;20517;-57
2021/08/28 00:16:06;;;;;;;1999.90;999.90;;;;;;;16.81;78.04;100992.78;15767909;28;20036;-61
2021/08/28 00:23:40;;;;;;;1999.90;999.90;;;;;;;16.75;78.32;100991.44;15785566;28;20041;-62
2021/08/28 00:31:12;;;;;;;1999.90;999.90;;;;;;;16.69;78.42;100990.13;15792307;28;20048;-62
2021/08/28 00:38:47;;;;;;;1999.90;999.90;;;;;;;16.84;77.79;100985.59;15779886;28;20048;-60
2021/08/28 00:46:21;;;;;;;1999.90;999.90;;;;;;;16.83;77.91;100984.78;15774117;28;20075;-62
2021/08/28 00:53:55;;;;;;;1999.90;999.90;;;;;;;16.84;77.92;100982.78;15770913;28;20041;-60
2021/08/28 01:01:33;;;;;;;1999.90;999.90;;;;;;;16.70;78.79;100978.47;15780705;28;20044;-60
2021/08/28 01:09:14;;;;;;;1999.90;999.90;;;;;;;16.74;79.27;100985.00;15783473;28;20029;-59
2021/08/28 01:17:01;;;;;;;1999.90;999.90;;;;;;;16.72;79.13;100989.38;15783282;28;20135;-62
2021/08/28 01:24:36;;;;;;;1999.90;999.90;;;;;;;16.77;79.40;100991.06;15764948;28;20580;-62
2021/08/28 01:32:18;;;;;;;1999.90;999.90;;;;;;;16.65;80.18;100992.78;15784557;28;20452;-63
2021/08/28 01:39:52;;;;;;;1999.90;999.90;;;;;;;16.74;79.55;100998.25;15764688;28;20073;-58
2021/08/28 01:47:33;;;;;;;1999.90;999.90;;;;;;;16.89;78.96;100997.41;15759949;28;20055;-61
2021/08/28 01:55:08;;;;;;;1999.90;999.90;;;;;;;16.87;79.32;101007.41;15773515;28;20044;-62
2021/08/28 02:02:49;;;;;;;1999.90;999.90;;;;;;;16.94;79.25;101002.75;15778127;28;20041;-59
2021/08/28 02:10:28;;;;;;;1999.90;999.90;;;;;;;16.99;78.82;101022.19;15738646;28;20044;-58
2021/08/28 02:18:12;;;;;;;1999.90;999.90;;;;;;;17.05;79.20;101019.06;15774152;28;20051;-59
2021/08/28 02:26:05;;;;;;;1999.90;999.90;;;;;;;17.19;78.40;101020.19;15770527;28;20037;-62
2021/08/28 02:33:41;;;;;;;1999.90;999.90;;;;;;;17.14;79.03;101016.84;15779292;28;20049;-62
2021/08/28 02:41:14;;;;;;;1999.90;999.90;;;;;;;17.06;78.91;101009.44;15767943;28;20044;-60
2021/08/28 02:48:48;;;;;;;1999.90;999.90;;;;;;;17.09;78.55;101017.97;15778926;28;20051;-63
2021/08/28 02:56:24;;;;;;;1999.90;999.90;;;;;;;17.09;78.47;101017.97;15778577;28;20040;-61
2021/08/28 03:04:00;;;;;;;1999.90;999.90;;;;;;;17.09;78.29;101015.16;15771355;28;20067;-62
2021/08/28 03:11:33;;;;;;;1999.90;999.90;;;;;;;16.95;78.53;101014.84;15780847;28;20036;-60
2021/08/28 03:19:09;;;;;;;1999.90;999.90;;;;;;;17.02;78.93;101017.81;15796655;28;20517;-61
2021/08/28 03:26:42;;;;;;;1999.90;999.90;;;;;;;17.01;78.82;101019.81;15755944;28;20044;-62
2021/08/28 03:34:17;;;;;;;1999.90;999.90;;;;;;;17.11;78.31;101023.25;15773982;28;20051;-61
2021/08/28 03:41:50;;;;;;;1999.90;999.90;;;;;;;16.83;79.34;101024.25;15769677;28;20039;-63
2021/08/28 03:49:27;;;;;;;1999.90;999.90;;;;;;;16.97;79.09;101024.53;15797221;28;20421;-60
2021/08/28 03:57:00;;;;;;;1999.90;999.90;;;;;;;16.82;79.06;101019.78;15778798;28;20115;-62
2021/08/28 04:04:33;;;;;;;1999.90;999.90;;;;;;;16.86;79.01;101017.03;15768904;28;20059;-63
2021/08/28 04:12:06;;;;;;;1999.90;999.90;;;;;;;16.74;79.57;101021.63;15763634;28;20028;-60
2021/08/28 04:19:43;;;;;;;1999.90;999.90;;;;;;;16.83;79.04;101026.25;15801400;28;20067;-62
2021/08/28 04:27:27;;;;;;;1999.90;999.90;;;;;;;16.66;79.17;101033.06;15759935;28;20037;-63
2021/08/28 04:35:01;;;;;;;1999.90;999.90;;;;;;;16.66;79.45;101039.50;15772359;28;20452;-61
2021/08/28 04:42:35;;;;;;;1999.90;999.90;;;;;;;16.50;79.99;101038.75;15784941;28;20063;-63
2021/08/28 04:50:30;;;;;;;1999.90;999.90;;;;;;;16.50;80.57;101044.38;15772640;28;20135;-60
2021/08/28 04:58:03;;;;;;;1999.90;999.90;;;;;;;16.78;79.16;101046.25;15770506;28;20505;-62
2021/08/28 05:05:38;;;;;;;1999.90;999.90;;;;;;;16.62;79.66;101047.06;15784767;28;20037;-58
2021/08/28 05:13:10;;;;;;;1999.90;999.90;;;;;;;16.76;79.16;101051.44;15765889;28;20032;-58
2021/08/28 05:20:49;;;;;;;1999.90;999.90;;;;;;;16.85;78.28;101060.50;15761917;28;20127;-58
2021/08/28 05:28:42;;;;;;;1999.90;999.90;;;;;;;16.86;78.38;101062.13;15786887;28;20093;-59
2021/08/28 05:36:16;;;;;;;1999.90;999.90;;;;;;;16.61;79.35;101069.97;15742748;28;20047;-59
2021/08/28 05:44:11;;;;;;;1999.90;999.90;;;;;;;16.55;78.75;101077.06;15771985;28;20036;-60
2021/08/28 05:51:45;;;;;;;1999.90;999.90;;;;;;;16.72;78.56;101082.34;15758755;28;20122;-63
2021/08/28 05:59:18;;;;;;;1999.90;999.90;;;;;;;16.42;79.04;101081.97;15769392;28;20299;-63
2021/08/28 06:06:52;;;;;;;1999.90;999.90;;;;;;;16.64;79.04;101078.50;15750663;28;20059;-62
2021/08/28 06:14:59;;;;;;;1999.90;999.90;;;;;;;16.49;78.88;101085.00;15799444;28;20056;-59
2021/08/28 06:22:49;;;;;;;1999.90;999.90;;;;;;;16.69;77.20;101083.09;15741663;28;20417;-61
2021/08/28 06:30:25;;;;;;;1999.90;999.90;;;;;;;16.82;77.76;101087.44;15779334;28;20067;-61
2021/08/28 06:37:59;;;;;;;1999.90;999.90;;;;;;;16.29;78.59;101083.28;15746047;28;20037;-62
2021/08/28 06:45:50;;;;;;;1999.90;999.90;;;;;;;16.11;79.89;101089.25;15792649;28;20417;-62
2021/08/28 06:53:56;;;;;;;1999.90;999.90;;;;;;;16.42;78.13;101096.06;15770649;28;20366;-62
2021/08/28 07:01:46;;;;;;;1999.90;999.90;;;;;;;16.62;78.84;101092.16;15784821;28;20047;-62
2021/08/28 07:09:45;;;;;;;1999.90;999.90;;;;;;;16.81;78.28;101099.06;15790028;28;20036;-62
2021/08/28 07:17:18;;;;;;;1999.90;999.90;;;;;;;16.41;79.04;101114.16;15745350;28;20151;-60
2021/08/28 07:24:51;;;;;;;1999.90;999.90;;;;;;;16.64;78.42;101117.13;15753193;28;20044;-60
2021/08/28 07:32:34;;;;;;;1999.90;999.90;;;;;;;16.60;79.08;101102.97;15747598;28;20056;-60
2021/08/28 07:40:10;;;;;;;1999.90;999.90;;;;;;;16.93;78.56;101108.22;15777732;28;20804;-64
2021/08/28 07:47:46;;;;;;;1999.90;999.90;;;;;;;17.13;77.46;101105.47;15774359;28;20040;-63
2021/08/28 07:55:21;;;;;;;1999.90;999.90;;;;;;;17.07;77.43;101109.72;15777724;28;20040;-63
2021/08/28 08:02:54;;;;;;;1999.90;999.90;;;;;;;17.17;76.99;101121.25;15790943;28;20441;-60
2021/08/28 08:10:46;;;;;;;1999.90;999.90;;;;;;;17.26;76.77;101119.03;15771380;28;20044;-63
2021/08/28 08:18:37;;;;;;;1999.90;999.90;;;;;;;17.03;77.90;101126.56;15794250;28;20036;-63
2021/08/28 08:26:29;;;;;;;1999.90;999.90;;;;;;;17.44;76.58;101125.09;15789417;28;20036;-62
2021/08/28 08:34:33;;;;;;;1999.90;999.90;;;;;;;17.99;75.06;101133.50;15779949;28;20032;-60
2021/08/28 08:42:11;;;;;;;1999.90;999.90;;;;;;;18.27;74.11;101134.03;15786276;28;20423;-59
2021/08/28 08:49:44;;;;;;;1999.90;999.90;;;;;;;18.46;73.12;101141.66;15800325;28;20472;-62
2021/08/28 08:57:18;;;;;;;1999.90;999.90;;;;;;;18.41;72.40;101137.13;15772348;28;20042;-61
2021/08/28 09:04:52;;;;;;;1999.90;999.90;;;;;;;18.39;73.09;101139.50;15780075;28;20302;-60
2021/08/28 09:12:34;;;;;;;1999.90;999.90;;;;;;;18.54;72.90;101137.72;15780967;28;20040;-60
2021/08/28 09:20:20;;;;;;;1999.90;999.90;;;;;;;18.71;72.32;101142.91;15762202;28;20040;-62
2021/08/28 09:27:54;;;;;;;1999.90;999.90;;;;;;;19.07;71.05;101145.50;15775967;28;20060;-63
2021/08/28 09:35:31;;;;;;;1999.90;999.90;;;;;;;18.92;71.33;101152.94;15784312;28;20079;-62
2021/08/28 09:43:09;;;;;;;1999.90;999.90;;;;;;;19.55;69.26;101155.09;15802836;28;20048;-62
2021/08/28 09:50:43;;;;;;;1999.90;999.90;;;;;;;19.46;68.89;101154.56;15802909;28;20044;-63
2021/08/28 09:58:24;;;;;;;1999.90;999.90;;;;;;;19.44;68.95;101152.13;15784760;28;20045;-62
2021/08/28 10:06:00;;;;;;;1999.90;999.90;;;;;;;19.68;67.82;101152.84;15801383;28;20062;-63
2021/08/28 10:13:36;;;;;;;1999.90;999.90;;;;;;;19.68;66.85;101167.00;15804461;28;20044;-63
2021/08/28 10:21:12;;;;;;;1999.90;999.90;;;;;;;19.88;68.42;101154.31;15814643;28;20043;-62
2021/08/28 10:28:53;;;;;;;1999.90;999.90;;;;;;;20.09;67.34;101157.41;15783041;28;20591;-62
2021/08/28 10:36:31;;;;;;;1999.90;999.90;;;;;;;20.02;66.19;101143.19;15750630;28;20044;-62
2021/08/28 10:44:10;;;;;;;1999.90;999.90;;;;;;;20.67;63.18;101148.31;15749756;28;20040;-61
2021/08/28 10:51:44;;;;;;;1999.90;999.90;;;;;;;21.36;61.83;101152.47;15749155;28;20064;-62
2021/08/28 10:59:23;;;;;;;1999.90;999.90;;;;;;;21.17;59.47;101151.53;15749959;28;20044;-63
2021/08/28 11:07:17;;;;;;;1999.90;999.90;;;;;;;21.70;59.15;101145.38;15749269;28;20044;-59
2021/08/28 11:14:51;;;;;;;1999.90;999.90;;;;;;;23.97;56.07;101152.34;15747748;28;20036;-62
2021/08/28 11:22:25;;;;;;;1999.90;999.90;;;;;;;23.82;52.49;101153.63;15730497;28;20094;-60
2021/08/28 11:29:58;;;;;;;1999.90;999.90;;;;;;;24.60;52.30;101146.69;15785161;28;20040;-60
2021/08/28 11:37:43;;;;;;;1999.90;999.90;;;;;;;24.63;49.23;101143.81;15810071;28;20115;-60
2021/08/28 11:45:21;;;;;;;1999.90;999.90;;;;;;;23.65;49.71;101138.22;15792172;28;20537;-61
2021/08/28 11:52:54;;;;;;;1999.90;999.90;;;;;;;22.80;53.01;101144.81;15809550;28;20036;-61
2021/08/28 12:00:30;;;;;;;1999.90;999.90;;;;;;;24.35;50.33;101139.09;15808905;28;20032;-61
2021/08/28 12:08:04;;;;;;;1999.90;999.90;;;;;;;27.33;43.48;101150.91;15807764;28;20105;-62
2021/08/28 12:15:48;;;;;;;1999.90;999.90;;;;;;;29.63;38.29;101145.13;15809362;28;20039;-62
2021/08/28 12:23:27;;;;;;;1999.90;999.90;;;;;;;30.07;36.92;101131.94;15809057;28;20032;-61
2021/08/28 12:31:05;;;;;;;;;;;;;;;31.29;35.19;101137.38;15760619;28;20037;-62
2021/08/28 12:39:00;;;;;;;1999.90;999.90;;;;;;;31.11;35.29;101129.34;15726751;28;20377;-62
2021/08/28 12:46:35;;;;;;;1999.90;999.90;;;;;;;26.10;42.52;101120.22;15743609;28;20072;-63
2021/08/28 12:54:11;;;;;;;1999.90;999.90;;;;;;;26.27;41.69;101112.63;15742820;28;20044;-62
2021/08/28 13:01:55;;;;;;;1999.90;999.90;;;;;;;25.12;45.26;101109.56;15742423;28;20040;-61
2021/08/28 13:09:28;;;;;;;1999.90;999.90;;;;;;;26.35;44.12;101103.47;15742238;28;20247;-60
2021/08/28 13:17:01;;;;;;;1999.90;999.90;;;;;;;27.10;42.97;101101.47;15723958;28;20045;-62
2021/08/28 13:24:36;;;;;;;1999.90;999.90;;;;;;;27.29;43.06;101103.50;15740992;28;20040;-60
2021/08/28 13:32:12;;;;;;;1999.90;999.90;;;;;;;27.18;42.08;101109.47;15798453;28;20140;-61
2021/08/28 13:39:48;;;;;;;1999.90;999.90;;;;;;;26.55;43.33;101092.16;15804709;28;20505;-61
2021/08/28 13:47:25;;;;;;;1999.90;999.90;;;;;;;26.54;45.29;101092.59;15801589;28;20068;-63
2021/08/28 13:54:57;;;;;;;1999.90;999.90;;;;;;;24.85;49.21;101077.97;15804836;28;20119;-62
2021/08/28 14:02:30;;;;;;;1999.90;999.90;;;;;;;24.27;48.54;101074.75;15804091;28;20050;-61
2021/08/28 14:10:07;;;;;;;1999.90;999.90;;;;;;;24.65;49.54;101070.00;15801812;28;20131;-61
2021/08/28 14:17:41;;;;;;;1999.90;999.90;;;;;;;24.45;50.74;101064.06;15802261;28;20048;-62
2021/08/28 14:25:18;;;;;;;1999.90;999.90;;;;;;;24.22;52.20;101055.25;15801646;28;20054;-59
2021/08/28 14:32:52;;;;;;;1999.90;999.90;;;;;;;23.78;52.39;101055.97;15721151;28;20044;-59
2021/08/28 14:40:26;;;;;;;1999.90;999.90;;;;;;;23.50;54.08;101057.69;15736937;28;20486;-61
2021/08/28 14:48:00;;;;;;;1999.90;999.90;;;;;;;23.52;54.43;101066.63;15738566;28;20464;-62
2021/08/28 14:55:32;;;;;;;1999.90;999.90;;;;;;;22.95;54.94;101061.13;15738150;28;20551;-60
2021/08/28 15:03:06;;;;;;;1999.90;999.90;;;;;;;23.04;55.24;101057.84;15744532;28;20516;-61
2021/08/28 15:10:38;;;;;;;1999.90;999.90;;;;;;;23.04;54.93;101066.41;15732157;28;20084;-59
2021/08/28 15:18:12;;;;;;;1999.90;999.90;;;;;;;22.88;55.40;101066.00;15747901;28;20132;-60
2021/08/28 15:25:47;;;;;;;1999.90;999.90;;;;;;;22.61;54.55;101071.28;15735269;28;20106;-63
2021/08/28 15:33:23;;;;;;;1999.90;999.90;;;;;;;22.37;56.45;101064.38;15810935;28;20487;-63
2021/08/28 15:40:59;;;;;;;1999.90;999.90;;;;;;;22.83;56.48;101069.25;15812967;28;20048;-60
2021/08/28 15:48:36;;;;;;;1999.90;999.90;;;;;;;22.80;57.54;101070.84;15814191;28;20532;-57
2021/08/28 15:56:09;;;;;;;1999.90;999.90;;;;;;;22.66;56.29;101074.53;15812647;28;20410;-59
2021/08/28 16:03:46;;;;;;;1999.90;999.90;;;;;;;22.67;57.65;101067.63;15811633;28;20068;-60
2021/08/28 16:11:19;;;;;;;1999.90;999.90;;;;;;;22.38;57.68;101069.66;15791544;28;20094;-60
2021/08/28 16:18:52;;;;;;;;;;;;;;;22.34;57.81;101068.84;15809355;28;20513;-60
2021/08/28 16:26:25;;;;;;;1999.90;999.90;;;;;;;22.06;60.35;101065.94;15797905;28;19920;-59
2021/08/28 16:33:58;;;;;;;1999.90;999.90;;;;;;;22.00;60.38;101061.88;15727731;28;20045;-56
2021/08/28 16:41:30;;;;;;;1999.90;999.90;;;;;;;;;;15743072;28;20098;-60
2021/08/28 16:49:04;;;;;;;1999.90;999.90;;;;;;;21.88;62.78;101065.88;15743553;28;20139;-60
2021/08/28 16:56:36;;;;;;;1999.90;999.90;;;;;;;21.82;62.88;101064.69;15725485;28;20131;-60
2021/08/28 17:04:10;;;;;;;1999.90;999.90;;;;;;;21.80;62.29;101062.25;15743412;28;20028;-59
2021/08/28 17:11:42;;;;;;;1999.90;999.90;;;;;;;21.46;61.69;101061.69;15742959;28;20120;-59
2021/08/28 17:19:18;;;;;;;1999.90;999.90;;;;;;;20.68;63.59;101064.06;15742672;28;20123;-59
2021/08/28 17:26:52;;;;;;;1999.90;999.90;;;;;;;20.68;64.21;101076.22;15753931;28;20052;-59
2021/08/28 17:34:25;;;;;;;1999.90;999.90;;;;;;;20.46;63.82;101069.56;15805503;28;20051;-64
2021/08/28 17:41:57;;;;;;;1999.90;999.90;;;;;;;20.17;65.61;101074.13;15804722;28;20412;-60
2021/08/28 17:49:31;;;;;;;1999.90;999.90;;;;;;;20.36;65.13;101073.09;15803207;28;20036;-61
2021/08/28 17:57:04;;;;;;;1999.90;999.90;;;;;;;20.22;65.49;101089.13;15803877;28;20048;-59
2021/08/28 18:04:38;;;;;;;1999.90;999.90;;;;;;;20.09;66.76;101091.44;15803908;28;20046;-60
2021/08/28 18:12:10;;;;;;;1999.90;999.90;;;;;;;20.17;67.09;101090.31;15801301;28;20032;-61
2021/08/28 18:19:44;;;;;;;1999.90;999.90;;;;;;;20.16;67.93;101092.34;15784407;28;20044;-62
2021/08/28 18:27:17;;;;;;;1999.90;999.90;;;;;;;20.10;68.06;101093.88;15785343;28;20502;-61
2021/08/28 18:34:51;;;;;;;1999.90;999.90;;;;;;;19.89;69.44;101107.81;15740744;28;20053;-60
2021/08/28 18:42:35;;;;;;;;;;;;;;;20.07;69.65;101106.00;15751367;28;20662;-59
2021/08/28 18:50:10;;;;;;;1999.90;999.90;;;;;;;19.92;70.63;101107.06;15750268;28;19955;-61
2021/08/28 18:57:47;;;;;;;1999.90;999.90;;;;;;;19.81;70.85;101112.59;15749998;28;20620;-59
2021/08/28 19:05:26;;;;;;;1999.90;999.90;;;;;;;19.79;70.85;101108.50;15748694;28;20076;-59
2021/08/28 19:12:58;;;;;;;1999.90;999.90;;;;;;;19.70;71.12;101105.19;15749538;28;20094;-62
2021/08/28 19:20:32;;;;;;;1999.90;999.90;;;;;;;19.62;72.04;101107.09;15748259;28;20045;-61
2021/08/28 19:28:05;;;;;;;1999.90;999.90;;;;;;;19.50;72.58;101115.81;15772423;28;20127;-63
2021/08/28 19:35:38;;;;;;;1999.90;999.90;;;;;;;19.50;72.87;101122.28;15811711;28;20052;-62
2021/08/28 19:43:10;;;;;;;1999.90;999.90;;;;;;;19.37;72.91;101118.06;15809948;28;20163;-61
2021/08/28 19:50:47;;;;;;;1999.90;999.90;;;;;;;19.30;73.90;101126.47;15810404;28;20093;-64
2021/08/28 19:58:23;;;;;;;1999.90;999.90;;;;;;;19.30;73.93;101120.81;15782863;28;20519;-61
2021/08/28 20:05:57;;;;;;;1999.90;999.90;;;;;;;19.42;73.39;101114.91;15771291;28;20045;-62
2021/08/28 20:13:32;;;;;;;1999.90;999.90;;;;;;;19.38;73.90;101113.19;15775764;28;20072;-61
2021/08/28 20:21:07;;;;;;;1999.90;999.90;;;;;;;19.28;74.01;101106.22;15807136;28;20044;-59
2021/08/28 20:28:40;;;;;;;1999.90;999.90;;;;;;;19.13;74.48;101112.88;15796928;28;20135;-62
2021/08/28 20:36:13;;;;;;;1999.90;999.90;;;;;;;19.25;74.39;101118.28;15746902;28;20043;-57
2021/08/28 20:43:46;;;;;;;1999.90;999.90;;;;;;;19.18;75.30;101118.22;15744918;28;20070;-63
2021/08/28 20:51:22;;;;;;;1999.90;999.90;;;;;;;19.23;74.96;101110.19;15742366;28;20048;-63
2021/08/28 20:58:59;;;;;;;1999.90;999.90;;;;;;;19.14;75.75;101120.97;15743319;28;20048;-62
2021/08/28 21:06:32;;;;;;;1999.90;999.90;;;;;;;18.99;75.97;101117.13;15786961;28;20094;-61
2021/08/28 21:14:07;;;;;;;1999.90;999.90;;;;;;;19.13;76.35;101108.03;15805751;28;20044;-61
2021/08/28 21:21:44;;;;;;;1999.90;999.90;;;;;;;19.07;76.69;101125.69;15805657;28;20040;-62
2021/08/28 21:29:16;;;;;;;1999.90;999.90;;;;;;;19.09;76.92;101132.63;15807218;28;20051;-62
2021/08/28 21:36:53;;;;;;;1999.90;999.90;;;;;;;19.14;76.67;101129.44;15802406;28;20051;-62
2021/08/28 21:44:27;;;;;;;1999.90;999.90;;;;;;;19.05;77.20;101120.41;15803597;28;20040;-60
2021/08/28 21:52:03;;;;;;;1999.90;999.90;;;;;;;19.01;77.58;101120.38;15803202;28;20481;-63
2021/08/28 21:59:35;;;;;;;1999.90;999.90;;;;;;;18.97;77.80;101127.19;15801729;28;20048;-62
2021/08/28 22:07:14;;;;;;;1999.90;999.90;;;;;;;19.00;78.24;101118.75;15750776;28;20043;-62
2021/08/28 22:14:46;;;;;;;1999.90;999.90;;;;;;;18.86;78.49;101110.06;15751047;28;20043;-63
2021/08/28 22:22:23;;;;;;;1999.90;999.90;;;;;;;18.80;78.68;101105.91;15752462;28;20044;-62
2021/08/28 22:29:56;;;;;;;1999.90;999.90;;;;;;;18.67;78.88;101102.47;15751778;28;20506;-60
2021/08/28 22:37:30;;;;;;;1999.90;999.90;;;;;;;18.63;79.07;101095.09;15768899;28;20560;-63
2021/08/28 22:45:04;;;;;;;1999.90;999.90;;;;;;;18.51;79.63;101098.13;15780365;28;20051;-62
2021/08/28 22:52:37;;;;;;;1999.90;999.90;;;;;;;18.67;79.18;101096.84;15770725;28;20060;-62
2021/08/28 23:00:11;;;;;;;1999.90;999.90;;;;;;;18.53;79.84;101102.19;15784367;28;20048;-63
2021/08/28 23:07:44;;;;;;;1999.90;999.90;;;;;;;18.63;79.83;101090.25;15808785;28;20429;-60
2021/08/28 23:15:29;;;;;;;1999.90;999.90;;;;;;;18.78;79.79;101093.38;15811423;28;20404;-60
2021/08/28 23:23:03;;;;;;;1999.90;999.90;;;;;;;18.74;79.87;101094.09;15762093;28;20032;-62
2021/08/28 23:30:35;;;;;;;1999.90;999.90;;;;;;;18.79;79.46;101098.63;15768078;28;20041;-60
2021/08/28 23:38:09;;;;;;;1999.90;999.90;;;;;;;18.70;79.96;101083.94;15796975;28;20048;-61
2021/08/28 23:46:02;;;;;;;1999.90;999.90;;;;;;;18.74;79.24;101085.63;15788452;28;20044;-63
2021/08/28 23:53:46;;;;;;;1999.90;999.90;;;;;;;18.81;79.83;101075.63;15761700;28;20040;-59
